Rosefield, Illinois
Current Conditions -  °F | °C
As of 1:54 AM on Monday 26 Jan 2015 (Local Time) from KPIA Reporting Station
Clear Clear  
Wind Chill: 14°   Ceiling: Unl
Heat Index: 22°   Visibility: 10mi
Dew Point: 14°   Wind: 6mph
Humidity: 72%   Direction: 340°NNW
Pressure: 30.04"   Gusts: NA
Location:  40.7615°N, 89.9372°W
Report Text: KPIA 260754Z 34005KT 10SM CLR M06/M10 A3004 RMK AO2 SLP181 T10561100
Loading
Personal Weather Stations






























Interactive Weather Map New forecast layout! Learn more

10-Day Weather Forecast

Advertisements
Track Severe Weather on mobile